Time;durP1;ratioP1;P1;durP2;ratioP2;P2;SDS_P1;SDS_P2;PMS_P1;PMS_P2;Temp;Humidity;BMP_temperature;BMP_pressure;BME280_temperature;BME280_humidity;BME280_pressure;Samples;Min_cycle;Max_cycle;Signal;HPM_P1;HPM_P2
2021/01/25 00:01:50;;;;;;;22.23;9.98;;;;;;;0.76;72.68;99343.63;4410502;32;20423;-76
2021/01/25 00:04:15;;;;;;;27.00;10.60;;;;;;;0.77;72.38;99344.44;4411752;32;20111;-76
2021/01/25 00:06:41;;;;;;;22.30;10.20;;;;;;;0.77;72.27;99350.75;4409665;32;20065;-76
2021/01/25 00:09:07;;;;;;;24.65;10.00;;;;;;;0.74;72.54;99357.09;4417376;32;20160;-75
2021/01/25 00:11:33;;;;;;;23.50;9.85;;;;;;;0.62;72.62;99349.28;4410879;32;20431;-76
2021/01/25 00:13:58;;;;;;;23.50;9.35;;;;;;;0.66;72.68;99343.72;4414300;32;20053;-76
2021/01/25 00:16:25;;;;;;;24.00;9.10;;;;;;;0.65;72.52;99351.25;4413321;32;20083;-75
2021/01/25 00:18:50;;;;;;;20.90;8.73;;;;;;;0.66;72.46;99352.81;4407951;32;20038;-76
2021/01/25 00:21:17;;;;;;;20.08;7.62;;;;;;;0.64;72.20;99357.19;4404474;32;20035;-77
2021/01/25 00:23:45;;;;;;;16.08;7.05;;;;;;;0.62;72.20;99357.59;4409635;32;20034;-77
2021/01/25 00:26:10;;;;;;;21.02;7.35;;;;;;;0.57;72.16;99358.00;4410899;32;20078;-76
2021/01/25 00:28:36;;;;;;;25.30;8.07;;;;;;;0.55;72.16;99360.37;4415520;32;20064;-76
2021/01/25 00:31:02;;;;;;;22.98;7.97;;;;;;;0.45;71.83;99366.78;4410896;32;20087;-77
2021/01/25 00:33:28;;;;;;;13.90;5.45;;;;;;;0.47;71.97;99364.41;4406103;32;20064;-77
2021/01/25 00:35:53;;;;;;;18.58;6.45;;;;;;;0.44;71.28;99370.75;4415326;32;20420;-75
2021/01/25 00:38:19;;;;;;;19.92;6.50;;;;;;;0.45;71.70;99374.28;4411103;32;20130;-76
2021/01/25 00:40:45;;;;;;;14.02;5.07;;;;;;;0.46;71.56;99378.66;4415277;32;20122;-76
2021/01/25 00:43:12;;;;;;;10.73;3.92;;;;;;;0.41;71.53;99377.09;4410136;32;20025;-76
2021/01/25 00:45:38;;;;;;;8.85;3.85;;;;;;;0.44;70.78;99373.50;4416969;32;20034;-75
2021/01/25 00:48:04;;;;;;;15.55;4.60;;;;;;;0.46;70.72;99382.19;4414455;32;20038;-76
2021/01/25 00:50:29;;;;;;;9.68;3.90;;;;;;;0.46;71.05;99387.72;4412225;32;20049;-77
2021/01/25 00:52:55;;;;;;;10.93;3.85;;;;;;;0.55;70.37;99398.37;4413104;32;20522;-76
2021/01/25 00:55:21;;;;;;;9.05;3.40;;;;;;;0.56;70.33;99392.44;4413648;32;20022;-75
2021/01/25 00:57:46;;;;;;;14.65;4.57;;;;;;;0.49;70.54;99397.22;4415587;32;20138;-77
2021/01/25 01:00:14;;;;;;;9.48;3.28;;;;;;;0.44;70.75;99400.38;4415374;32;20015;-77
2021/01/25 01:02:40;;;;;;;11.82;4.47;;;;;;;0.42;70.91;99389.72;4413122;32;20040;-77
2021/01/25 01:05:07;;;;;;;8.35;3.42;;;;;;;0.45;70.98;99402.75;4410359;32;20510;-76
2021/01/25 01:07:46;;;;;;;10.40;3.83;;;;;;;0.52;70.94;99402.69;4404587;32;20169;-77
2021/01/25 01:10:25;;;;;;;18.95;5.07;;;;;;;0.45;70.92;99405.53;4411804;32;20064;-77
2021/01/25 01:13:04;;;;;;;18.48;4.10;;;;;;;0.34;71.31;99404.81;4404173;32;20064;-76
2021/01/25 01:15:43;;;;;;;13.65;3.40;;;;;;;0.38;71.30;99407.53;4409456;32;20080;-76
2021/01/25 01:18:22;;;;;;;8.93;3.55;;;;;;;0.30;71.37;99404.00;4405906;32;20516;-76
2021/01/25 01:21:03;;;;;;;10.10;3.20;;;;;;;0.33;71.49;99397.66;4410894;32;20065;-74
2021/01/25 01:24:09;;;;;;;11.10;3.00;;;;;;;0.33;71.23;99400.44;4403003;32;20684;-77
2021/01/25 01:27:30;;;;;;;10.15;2.72;;;;;;;0.41;70.71;99398.41;4397560;32;20067;-76
2021/01/25 01:30:23;;;;;;;11.85;3.90;;;;;;;0.45;70.61;99402.75;4411695;32;20104;-76
2021/01/25 01:33:30;;;;;;;9.93;3.62;;;;;;;0.45;70.84;99407.47;4403742;32;20076;-76
2021/01/25 01:36:10;;;;;;;9.70;3.20;;;;;;;0.51;70.57;99406.69;4402299;32;20056;-77
2021/01/25 01:38:36;;;;;;;8.60;3.30;;;;;;;0.44;70.83;99414.22;4406399;32;20125;-75
2021/01/25 01:41:01;;;;;;;12.10;3.35;;;;;;;0.42;71.07;99408.28;4414669;32;20046;-76
2021/01/25 01:43:27;;;;;;;9.95;2.92;;;;;;;0.43;70.92;99413.41;4416380;32;20038;-76
2021/01/25 01:45:53;;;;;;;8.50;3.45;;;;;;;0.46;70.83;99411.84;4416242;32;20478;-76
2021/01/25 01:48:19;;;;;;;6.30;2.30;;;;;;;0.39;70.71;99418.19;4417163;32;20122;-76
2021/01/25 01:50:45;;;;;;;6.53;2.90;;;;;;;0.30;70.62;99420.59;4416044;32;20095;-77
2021/01/25 01:53:11;;;;;;;11.75;2.90;;;;;;;0.31;71.33;99429.69;4411350;32;20026;-76
2021/01/25 01:55:37;;;;;;;8.20;2.47;;;;;;;0.30;71.36;99423.38;4407955;32;20073;-76
2021/01/25 01:58:03;;;;;;;4.95;2.08;;;;;;;0.26;71.52;99425.38;4414770;32;20440;-76
2021/01/25 02:00:29;;;;;;;7.15;2.03;;;;;;;0.33;71.09;99427.34;4413934;32;20097;-75
2021/01/25 02:02:55;;;;;;;8.52;2.60;;;;;;;0.34;70.91;99431.66;4408563;32;20466;-76
2021/01/25 02:05:34;;;;;;;7.25;2.55;;;;;;;0.32;70.59;99434.03;4405857;32;20115;-76
2021/01/25 02:08:01;;;;;;;4.22;1.83;;;;;;;0.33;70.52;99433.62;4412399;32;20085;-76
2021/01/25 02:10:29;;;;;;;9.63;2.72;;;;;;;0.32;70.51;99437.59;4408269;32;20100;-77
2021/01/25 02:12:59;;;;;;;6.80;2.37;;;;;;;0.30;70.52;99439.19;4414338;32;20452;-75
2021/01/25 02:15:26;;;;;;;7.97;3.30;;;;;;;0.32;70.29;99437.59;4416045;32;20365;-75
2021/01/25 02:17:52;;;;;;;6.72;2.45;;;;;;;0.26;70.44;99441.16;4411258;32;20426;-76
2021/01/25 02:20:30;;;;;;;6.93;2.33;;;;;;;0.23;70.17;99442.78;4412205;32;20038;-76
2021/01/25 02:28:09;;;;;;;6.70;1.83;;;;;;;0.33;70.50;99443.94;3986948;32;15022761;-74
2021/01/25 02:30:37;;;;;;;6.82;1.50;;;;;;;0.24;70.22;99441.56;4443723;32;20067;-76
2021/01/25 02:33:03;;;;;;;6.35;1.98;;;;;;;0.29;70.12;99443.94;4437326;32;20162;-75
2021/01/25 02:35:29;;;;;;;5.03;1.00;;;;;;;0.30;70.13;99442.75;4424765;32;20371;-76
2021/01/25 02:37:56;;;;;;;2.85;0.77;;;;;;;0.37;70.92;99434.41;4426834;32;20452;-77
2021/01/25 02:40:24;;;;;;;4.32;0.70;;;;;;;0.53;71.68;99436.72;4420110;32;20083;-77
2021/01/25 02:42:53;;;;;;;4.00;0.85;;;;;;;0.88;71.24;99451.16;4430474;32;20026;-75
2021/01/25 02:45:21;;;;;;;3.20;0.77;;;;;;;1.21;70.52;99446.97;4420045;32;20104;-75
2021/01/25 02:47:47;;;;;;;3.33;0.70;;;;;;;1.40;69.93;99449.19;4421162;32;20050;-77
2021/01/25 02:50:13;;;;;;;3.00;0.93;;;;;;;1.53;70.27;99450.25;4420372;32;20069;-76
2021/01/25 02:52:39;;;;;;;4.80;1.37;;;;;;;1.80;70.44;99451.22;4421747;32;20082;-75
2021/01/25 02:55:05;;;;;;;4.70;1.27;;;;;;;2.03;69.91;99456.94;4422388;32;20147;-76
2021/01/25 02:57:32;;;;;;;2.35;1.00;;;;;;;2.12;69.80;99471.88;4422908;32;20045;-76
2021/01/25 02:59:59;;;;;;;3.35;1.23;;;;;;;2.23;69.58;99471.78;4427043;32;20115;-76
2021/01/25 03:02:25;;;;;;;4.55;1.27;;;;;;;2.42;69.03;99454.50;4426027;32;20068;-77
2021/01/25 03:04:51;;;;;;;2.35;0.85;;;;;;;2.54;68.90;99464.28;4428241;32;20101;-76
2021/01/25 03:07:17;;;;;;;3.28;1.30;;;;;;;2.57;68.71;99455.13;4422813;32;20068;-75
2021/01/25 03:09:43;;;;;;;3.15;1.40;;;;;;;2.62;69.04;99466.56;4418558;32;20064;-76
2021/01/25 03:12:08;;;;;;;10.30;1.98;;;;;;;2.57;69.26;99460.69;4416714;32;20116;-76
2021/01/25 03:14:41;;;;;;;2.92;1.55;;;;;;;2.65;69.54;99464.94;4423209;32;20068;-78
2021/01/25 03:17:07;;;;;;;4.05;2.08;;;;;;;2.70;69.77;99459.69;4425100;32;20025;-75
2021/01/25 03:19:33;;;;;;;5.45;2.20;;;;;;;2.67;70.58;99462.53;4421626;32;20196;-76
2021/01/25 03:21:58;;;;;;;4.78;2.08;;;;;;;2.67;70.65;99462.53;4420315;32;20068;-75
2021/01/25 03:24:24;;;;;;;5.90;2.45;;;;;;;2.72;71.16;99464.84;4425577;32;20026;-77
2021/01/25 03:26:50;;;;;;;5.87;2.50;;;;;;;2.81;70.99;99454.00;4429912;32;20097;-75
2021/01/25 03:29:16;;;;;;;5.40;2.12;;;;;;;2.78;71.45;99457.59;4428940;32;20061;-75
2021/01/25 03:31:42;;;;;;;9.90;2.83;;;;;;;2.79;71.51;99454.41;4424042;32;20070;-76
2021/01/25 03:34:08;;;;;;;7.85;2.90;;;;;;;2.77;72.02;99459.63;4427167;32;20022;-76
2021/01/25 03:36:35;;;;;;;4.12;2.70;;;;;;;2.77;72.61;99467.16;4426323;32;20451;-77
2021/01/25 03:39:01;;;;;;;5.78;2.65;;;;;;;2.79;72.75;99459.97;4414971;32;20059;-76
2021/01/25 03:41:27;;;;;;;4.87;3.00;;;;;;;2.74;73.29;99459.66;4415833;32;20046;-76
2021/01/25 03:43:53;;;;;;;6.72;2.35;;;;;;;2.79;73.49;99461.97;4414143;32;20014;-76
2021/01/25 03:46:19;;;;;;;6.80;3.15;;;;;;;2.68;74.49;99456.56;4415984;32;20033;-75
2021/01/25 03:48:45;;;;;;;4.97;2.75;;;;;;;2.83;74.06;99465.50;4409847;32;20050;-75
2021/01/25 03:51:11;;;;;;;5.65;2.47;;;;;;;2.84;74.03;99458.72;4419729;32;20042;-78
2021/01/25 03:53:37;;;;;;;7.18;2.90;;;;;;;2.80;73.97;99453.22;4411978;32;20060;-75
2021/01/25 03:56:03;;;;;;;4.97;2.20;;;;;;;2.85;73.94;99454.75;4414646;32;20105;-75
2021/01/25 03:58:28;;;;;;;3.08;2.10;;;;;;;2.91;73.61;99462.19;4415623;32;20034;-76
2021/01/25 04:00:54;;;;;;;5.85;2.42;;;;;;;2.96;73.29;99463.72;4410684;32;20137;-75
2021/01/25 04:03:20;;;;;;;4.62;2.20;;;;;;;2.98;73.32;99453.75;4407053;32;20167;-75
2021/01/25 04:05:46;;;;;;;3.78;1.87;;;;;;;3.10;72.81;99457.97;4415509;32;20015;-76
2021/01/25 04:08:13;;;;;;;3.05;1.67;;;;;;;3.09;72.55;99464.72;4413547;32;20022;-77
2021/01/25 04:10:39;;;;;;;4.43;1.80;;;;;;;3.22;72.18;99471.28;4419153;32;20087;-76
2021/01/25 04:13:04;;;;;;;4.95;2.08;;;;;;;3.18;72.17;99471.34;4409105;32;20023;-76
2021/01/25 04:15:30;;;;;;;4.62;1.75;;;;;;;3.18;72.00;99459.41;4418072;32;20392;-77
2021/01/25 04:17:55;;;;;;;3.95;1.62;;;;;;;3.16;71.79;99462.63;4415235;32;20492;-75
2021/01/25 04:20:21;;;;;;;6.12;1.67;;;;;;;3.15;71.63;99474.16;4417649;32;20408;-76
2021/01/25 04:22:47;;;;;;;4.90;1.80;;;;;;;3.27;71.20;99473.59;4409015;32;20026;-77
2021/01/25 04:25:13;;;;;;;5.60;1.98;;;;;;;3.31;70.58;99477.88;4412229;32;20065;-76
2021/01/25 04:27:38;;;;;;;6.78;2.25;;;;;;;3.30;70.69;99486.66;4411246;32;20419;-76
2021/01/25 04:30:08;;;;;;;2.97;1.75;;;;;;;3.41;70.31;99485.28;4415543;32;20074;-76
2021/01/25 04:32:35;;;;;;;4.03;1.65;;;;;;;3.45;70.18;99496.34;4410537;32;20443;-77
2021/01/25 04:35:05;;;;;;;5.05;1.70;;;;;;;3.37;71.02;99483.75;4414166;32;20070;-77
2021/01/25 04:37:31;;;;;;;5.75;1.92;;;;;;;3.51;70.87;99486.31;4410762;32;20092;-78
2021/01/25 04:39:57;;;;;;;5.25;1.80;;;;;;;3.40;70.91;99486.47;4403831;32;20038;-77
2021/01/25 04:42:24;;;;;;;9.38;2.35;;;;;;;3.45;70.95;99490.78;4408355;32;20128;-76
2021/01/25 04:44:51;;;;;;;9.93;3.03;;;;;;;3.43;71.06;99477.31;4418576;32;20097;-75
2021/01/25 04:47:17;;;;;;;9.38;2.28;;;;;;;3.53;70.66;99483.91;4411539;32;20476;-77
2021/01/25 04:49:45;;;;;;;11.50;2.90;;;;;;;3.59;70.56;99488.56;4410019;32;20056;-76
2021/01/25 04:52:13;;;;;;;12.95;2.60;;;;;;;3.47;71.66;99483.59;4411780;32;20436;-77
2021/01/25 04:54:40;;;;;;;6.47;3.08;;;;;;;3.50;71.51;99491.09;4410833;32;20022;-76
2021/01/25 04:57:07;;;;;;;9.50;2.75;;;;;;;3.43;72.06;99491.22;4407467;32;20085;-77
2021/01/25 04:59:34;;;;;;;5.70;2.53;;;;;;;3.37;72.23;99497.66;4409258;32;20034;-77
2021/01/25 05:02:00;;;;;;;6.53;2.60;;;;;;;3.41;72.45;99492.84;4409485;32;20038;-78
2021/01/25 05:04:26;;;;;;;8.05;2.58;;;;;;;3.70;71.09;99486.41;4413368;32;20038;-77
2021/01/25 05:06:52;;;;;;;9.23;2.97;;;;;;;3.48;71.85;99489.94;4406974;32;20037;-76
2021/01/25 05:09:17;;;;;;;5.93;2.50;;;;;;;3.47;72.10;99491.16;4411870;32;20646;-76
2021/01/25 05:11:43;;;;;;;7.00;2.70;;;;;;;3.45;72.28;99497.16;4411600;32;20084;-76
2021/01/25 05:14:09;;;;;;;6.78;2.50;;;;;;;3.56;71.80;99497.75;4407239;32;20042;-77
2021/01/25 05:16:35;;;;;;;5.80;2.22;;;;;;;3.53;71.83;99487.47;4407327;32;20093;-76
2021/01/25 05:19:04;;;;;;;6.45;2.47;;;;;;;3.48;72.35;99492.72;4413623;32;20030;-78
2021/01/25 05:21:37;;;;;;;5.37;2.40;;;;;;;3.50;72.47;99493.88;4410358;32;20076;-76
2021/01/25 05:24:05;;;;;;;9.38;2.75;;;;;;;3.51;72.43;99503.00;4406156;32;20052;-75
2021/01/25 05:26:31;;;;;;;10.38;2.60;;;;;;;3.60;72.05;99500.47;4410754;32;20063;-75
2021/01/25 05:28:57;;;;;;;8.02;2.75;;;;;;;3.52;72.04;99494.25;4418049;32;20441;-78
2021/01/25 05:31:25;;;;;;;7.37;2.35;;;;;;;3.45;72.51;99497.16;4412220;32;20038;-76
2021/01/25 05:33:51;;;;;;;8.32;2.78;;;;;;;3.45;72.61;99501.91;4406854;32;20014;-76
2021/01/25 05:36:24;;;;;;;4.80;2.37;;;;;;;3.42;72.71;99499.97;4412301;32;20332;-76
2021/01/25 05:38:51;;;;;;;6.65;2.40;;;;;;;3.47;72.74;99505.84;4409184;32;20116;-77
2021/01/25 05:41:18;;;;;;;6.75;2.08;;;;;;;3.58;72.10;99502.88;4411428;32;20109;-78
2021/01/25 05:43:45;;;;;;;5.62;2.10;;;;;;;3.39;72.80;99507.16;4411521;32;20127;-77
2021/01/25 05:46:12;;;;;;;4.82;2.37;;;;;;;3.48;72.54;99510.22;4415069;32;20035;-75
2021/01/25 05:48:40;;;;;;;8.50;2.67;;;;;;;3.40;72.87;99502.38;4407516;32;20061;-75
2021/01/25 05:51:16;;;;;;;6.22;2.33;;;;;;;3.38;73.08;99511.13;4407532;32;20034;-77
2021/01/25 05:53:42;;;;;;;;;;;;;;;3.39;72.96;99506.37;4413197;32;20034;-76
2021/01/25 05:56:09;;;;;;;6.85;1.80;;;;;;;3.27;73.11;99490.25;4424706;32;19954;-76
2021/01/25 05:58:34;;;;;;;3.83;1.70;;;;;;;3.43;72.95;99502.31;4412358;32;20496;-77
2021/01/25 06:01:01;;;;;;;2.85;1.77;;;;;;;3.45;72.61;99513.84;4412824;32;20090;-77
2021/01/25 06:03:27;;;;;;;4.22;1.83;;;;;;;3.43;73.01;99519.00;4412323;32;20048;-76
2021/01/25 06:05:54;;;;;;;4.65;2.03;;;;;;;3.40;73.12;99519.06;4414457;32;20113;-76
2021/01/25 06:11:11;;;;;;;6.30;1.98;;;;;;;4.13;71.40;99531.78;3986551;32;15152068;-76
2021/01/25 06:13:46;;;;;;;9.65;3.03;;;;;;;4.13;71.40;99531.78;4446080;32;21376;-77
2021/01/25 06:16:12;;;;;;;;;;;;;;;3.59;72.55;99533.06;4441986;32;20056;-74
2021/01/25 06:18:42;;;;;;;7.87;2.25;;;;;;;3.60;72.26;99533.88;4446589;32;19957;-76
2021/01/25 06:21:10;;;;;;;4.20;1.90;;;;;;;3.52;72.96;99537.94;4446669;32;20018;-75
2021/01/25 06:23:37;;;;;;;8.07;2.80;;;;;;;3.47;73.19;99535.66;4444030;32;20030;-78
2021/01/25 06:26:03;;;;;;;11.32;3.45;;;;;;;3.52;73.04;99541.53;4445807;32;20085;-77
2021/01/25 06:28:32;;;;;;;5.80;2.92;;;;;;;3.47;73.35;99542.00;4446128;32;20036;-77
2021/01/25 06:30:57;;;;;;;10.77;3.53;;;;;;;3.48;73.38;99542.78;4444540;32;20133;-75
2021/01/25 06:33:24;;;;;;;14.70;3.72;;;;;;;3.46;73.33;99542.41;4444505;32;20021;-76
2021/01/25 06:35:50;;;;;;;10.50;4.00;;;;;;;3.42;73.86;99547.25;4430527;32;20022;-78
2021/01/25 06:38:18;;;;;;;9.95;4.32;;;;;;;3.64;72.52;99563.19;4429957;32;20029;-76
2021/01/25 06:40:46;;;;;;;10.60;3.75;;;;;;;3.41;73.93;99557.56;4427790;32;20030;-76
2021/01/25 06:43:14;;;;;;;11.23;4.75;;;;;;;3.43;74.00;99557.16;4430331;32;20070;-75
2021/01/25 06:45:43;;;;;;;8.35;4.07;;;;;;;3.47;73.55;99552.34;4427117;32;20038;-75
2021/01/25 06:48:12;;;;;;;6.95;3.58;;;;;;;3.48;73.65;99557.47;4425679;32;20049;-76
2021/01/25 06:50:38;;;;;;;10.25;4.20;;;;;;;3.52;73.26;99558.22;4430348;32;20080;-75
2021/01/25 06:53:04;;;;;;;10.32;4.28;;;;;;;3.48;73.35;99560.25;4428646;32;20064;-76
2021/01/25 06:55:33;;;;;;;9.65;3.90;;;;;;;3.55;73.06;99571.28;4430866;32;20042;-76
2021/01/25 06:58:05;;;;;;;10.27;5.03;;;;;;;3.58;72.93;99564.06;4425173;32;20038;-76
2021/01/25 07:00:33;;;;;;;8.77;4.55;;;;;;;3.55;73.02;99579.63;4429794;32;20041;-75
2021/01/25 07:03:02;;;;;;;9.18;4.53;;;;;;;3.57;72.92;99580.00;4429996;32;20366;-77
2021/01/25 07:08:23;;;;;;;12.75;4.62;;;;;;;4.02;72.24;99611.13;4002565;31;15015566;-76
2021/01/25 07:11:02;;;;;;;10.32;5.43;;;;;;;4.02;72.24;99611.13;4462622;32;20045;-76
2021/01/25 07:16:04;;;;;;;12.27;5.20;;;;;;;4.02;72.21;99611.87;4008882;31;15017081;-77
2021/01/25 07:18:30;;;;;;;13.77;5.65;;;;;;;4.02;72.21;99611.87;4472432;32;20111;-75
2021/01/25 07:20:58;;;;;;;10.73;5.20;;;;;;;3.95;71.79;99600.06;4476567;32;20033;-78
2021/01/25 07:23:26;;;;;;;15.40;5.65;;;;;;;4.05;71.72;99608.25;4469795;32;20072;-76
2021/01/25 07:25:54;;;;;;;10.05;5.57;;;;;;;3.78;72.31;99607.47;4476783;32;20029;-75
2021/01/25 07:28:21;;;;;;;12.05;5.37;;;;;;;3.74;72.65;99609.53;4473894;32;20099;-76
2021/01/25 07:30:47;;;;;;;11.93;5.70;;;;;;;3.86;72.66;99603.41;4470409;32;20056;-76
2021/01/25 07:33:13;;;;;;;12.23;5.05;;;;;;;3.76;73.00;99603.56;4468543;32;20386;-76
2021/01/25 07:35:39;;;;;;;13.20;5.80;;;;;;;3.72;73.27;99602.84;4461561;32;20097;-77
2021/01/25 07:38:05;;;;;;;15.90;6.57;;;;;;;3.70;73.44;99613.56;4458812;32;20081;-77
2021/01/25 07:40:31;;;;;;;12.20;6.03;;;;;;;3.90;72.73;99611.69;4460988;32;20045;-77
2021/01/25 07:43:01;;;;;;;16.80;6.12;;;;;;;4.04;72.42;99622.59;4458156;32;20426;-78
2021/01/25 07:45:27;;;;;;;13.70;6.55;;;;;;;3.97;72.43;99619.94;4446120;32;20075;-77
2021/01/25 07:47:52;;;;;;;14.87;6.10;;;;;;;3.82;73.04;99624.12;4460114;32;20410;-77
2021/01/25 07:50:18;;;;;;;14.05;6.12;;;;;;;3.64;74.02;99620.81;4459327;32;20358;-77
2021/01/25 07:52:44;;;;;;;14.00;5.80;;;;;;;3.64;74.14;99629.16;4462932;32;20327;-77
2021/01/25 07:55:17;;;;;;;16.90;5.62;;;;;;;3.76;73.94;99623.84;4459441;32;20388;-78
2021/01/25 07:57:44;;;;;;;8.82;5.45;;;;;;;3.84;74.05;99624.50;4453422;32;20037;-77
2021/01/25 08:00:18;;;;;;;8.80;5.47;;;;;;;3.77;73.96;99630.16;4455047;32;21174;-77
2021/01/25 08:02:52;;;;;;;14.57;5.65;;;;;;;3.89;73.83;99627.59;4460217;32;20041;-77
2021/01/25 08:05:19;;;;;;;14.52;6.05;;;;;;;3.90;73.83;99623.59;4453837;32;20392;-78
2021/01/25 08:07:46;;;;;;;13.73;5.80;;;;;;;3.87;73.76;99635.56;4458196;32;20057;-76
2021/01/25 08:10:14;;;;;;;15.70;5.82;;;;;;;3.96;73.42;99646.97;4455934;32;20097;-77
2021/01/25 08:12:43;;;;;;;11.15;5.60;;;;;;;4.04;73.25;99626.19;4458119;32;20033;-78
2021/01/25 08:15:12;;;;;;;12.45;4.95;;;;;;;4.10;72.99;99630.06;4455296;32;20052;-78
2021/01/25 08:17:48;;;;;;;19.10;5.20;;;;;;;4.12;73.15;99638.75;4455144;32;20093;-78
2021/01/25 08:20:21;;;;;;;15.20;4.60;;;;;;;4.38;71.77;99634.38;4459385;32;20045;-78
2021/01/25 08:25:28;;;;;;;20.62;4.47;;;;;;;4.96;71.41;99656.00;3984351;32;15023332;-77
2021/01/25 08:28:01;;;;;;;15.32;4.03;;;;;;;4.96;71.41;99656.00;4443565;32;20061;-77
2021/01/25 08:30:33;;;;;;;11.75;3.75;;;;;;;4.55;72.56;99650.00;4439518;32;20034;-76
2021/01/25 08:33:02;;;;;;;9.88;4.15;;;;;;;4.60;72.55;99649.50;4438289;32;20115;-77
2021/01/25 08:35:39;;;;;;;14.50;4.80;;;;;;;4.68;72.31;99653.75;4428682;32;20022;-76
2021/01/25 08:38:08;;;;;;;13.62;4.47;;;;;;;4.58;72.90;99660.31;4423490;32;20063;-76
2021/01/25 08:40:36;;;;;;;10.05;4.35;;;;;;;4.54;72.93;99670.69;4424267;32;20113;-77
2021/01/25 08:43:04;;;;;;;9.52;4.30;;;;;;;4.57;73.01;99675.44;4423880;32;20399;-76
2021/01/25 08:45:31;;;;;;;8.07;4.25;;;;;;;4.52;72.98;99659.22;4423674;32;20075;-76
2021/01/25 08:48:13;;;;;;;11.95;5.18;;;;;;;4.77;72.64;99667.13;4425582;32;20089;-77
2021/01/25 08:50:40;;;;;;;11.10;3.83;;;;;;;4.72;72.41;99662.06;4425542;32;20068;-76
2021/01/25 08:53:15;;;;;;;9.80;4.10;;;;;;;4.86;72.19;99670.94;4424088;32;20034;-78
2021/01/25 08:55:44;;;;;;;9.98;4.47;;;;;;;4.74;72.40;99663.19;4428200;32;20064;-76
2021/01/25 08:58:24;;;;;;;18.83;4.68;;;;;;;4.73;72.59;99661.62;4425024;32;20080;-78
2021/01/25 09:00:50;;;;;;;16.58;4.68;;;;;;;4.75;72.65;99666.78;4426640;32;20041;-75
2021/01/25 09:03:16;;;;;;;18.65;4.47;;;;;;;4.64;73.26;99661.41;4427814;32;20391;-76
2021/01/25 09:05:43;;;;;;;12.15;4.35;;;;;;;4.69;73.08;99662.91;4429496;32;20415;-77
2021/01/25 09:08:09;;;;;;;9.98;3.97;;;;;;;4.77;72.63;99684.66;4426985;32;20060;-77
2021/01/25 09:10:35;;;;;;;12.55;4.32;;;;;;;4.76;73.04;99687.84;4426745;32;20291;-76
2021/01/25 09:13:01;;;;;;;14.80;4.40;;;;;;;4.72;73.15;99687.13;4426749;32;20014;-75
2021/01/25 09:15:26;;;;;;;10.73;3.80;;;;;;;4.67;73.42;99698.75;4427509;32;20066;-76
2021/01/25 09:17:54;;;;;;;13.32;4.65;;;;;;;4.66;73.13;99686.81;4428556;32;20486;-76
2021/01/25 09:20:20;;;;;;;16.92;4.47;;;;;;;4.70;73.37;99695.91;4426085;32;20366;-76
2021/01/25 09:22:46;;;;;;;13.50;4.05;;;;;;;4.73;73.00;99702.63;4413017;32;20785;-77
2021/01/25 09:25:13;;;;;;;12.60;4.55;;;;;;;4.80;72.59;99703.31;4408383;32;20937;-77
2021/01/25 09:27:40;;;;;;;12.82;5.00;;;;;;;4.83;72.46;99693.28;4437453;32;20278;-77
2021/01/25 09:30:08;;;;;;;11.90;3.80;;;;;;;4.87;72.21;99688.44;4423206;32;21967;-77
2021/01/25 09:32:34;;;;;;;17.42;4.68;;;;;;;4.98;71.86;99689.84;4420604;32;20507;-75
2021/01/25 09:34:59;;;;;;;15.23;4.10;;;;;;;4.99;71.94;99691.41;4419751;32;20096;-77
2021/01/25 09:37:25;;;;;;;11.38;4.20;;;;;;;5.07;71.95;99670.56;4415012;32;20460;-75
2021/01/25 09:39:50;;;;;;;16.52;4.55;;;;;;;5.14;71.48;99681.56;4413858;32;20026;-78
2021/01/25 09:42:16;;;;;;;22.48;4.95;;;;;;;5.23;71.60;99689.37;4419667;32;20053;-76
2021/01/25 09:44:42;;;;;;;12.20;4.40;;;;;;;5.09;72.44;99693.19;4417419;32;20418;-76
2021/01/25 09:47:08;;;;;;;12.35;4.70;;;;;;;5.02;72.44;99696.13;4416664;32;20876;-75
2021/01/25 09:49:34;;;;;;;14.00;4.32;;;;;;;5.19;71.78;99695.00;4413846;32;20045;-75
2021/01/25 09:52:00;;;;;;;16.80;4.30;;;;;;;5.19;71.04;99688.66;4410415;32;20074;-78
2021/01/25 09:54:27;;;;;;;13.40;4.15;;;;;;;5.38;70.38;99699.81;4409199;32;20076;-78
2021/01/25 09:56:53;;;;;;;13.45;4.80;;;;;;;5.50;70.14;99693.56;4412586;32;20395;-76
2021/01/25 09:59:19;;;;;;;12.98;4.57;;;;;;;5.61;70.07;99715.69;4417021;32;20141;-74
2021/01/25 10:01:45;;;;;;;11.85;4.37;;;;;;;5.61;69.79;99713.69;4414336;32;20069;-75
2021/01/25 10:04:11;;;;;;;12.75;4.35;;;;;;;5.65;69.79;99714.41;4415781;32;20128;-75
2021/01/25 10:06:37;;;;;;;21.92;4.60;;;;;;;5.71;69.59;99728.66;4415673;32;20409;-77
2021/01/25 10:09:04;;;;;;;16.52;3.85;;;;;;;5.87;69.68;99734.31;4412413;32;20573;-76
2021/01/25 10:11:31;;;;;;;16.27;3.80;;;;;;;5.71;69.61;99721.06;4415931;32;20169;-77
2021/01/25 10:13:57;;;;;;;11.00;3.75;;;;;;;5.83;69.27;99728.81;4416635;32;20133;-78
2021/01/25 10:16:23;;;;;;;10.43;3.17;;;;;;;5.83;69.63;99728.81;4413675;32;20367;-75
2021/01/25 10:18:50;;;;;;;13.40;3.78;;;;;;;5.93;68.94;99740.97;4410337;32;20136;-74
2021/01/25 10:21:18;;;;;;;13.43;3.72;;;;;;;6.12;68.66;99735.38;4413824;32;20060;-76
2021/01/25 10:23:45;;;;;;;11.75;3.55;;;;;;;6.32;67.83;99737.31;4416157;32;20081;-78
2021/01/25 10:26:11;;;;;;;11.15;3.15;;;;;;;6.57;66.70;99743.91;4417662;32;20088;-76
2021/01/25 10:28:37;;;;;;;12.75;3.35;;;;;;;6.40;66.33;99749.91;4416983;32;20092;-78
2021/01/25 10:31:02;;;;;;;11.20;2.83;;;;;;;6.47;66.72;99753.31;4415100;32;20539;-77
2021/01/25 10:33:28;;;;;;;9.65;2.67;;;;;;;6.58;65.94;99745.47;4415087;32;20034;-76
2021/01/25 10:35:54;;;;;;;12.15;2.67;;;;;;;6.66;65.72;99757.28;4417263;32;20441;-76
2021/01/25 10:38:19;;;;;;;11.10;3.17;;;;;;;6.77;65.06;99758.59;4412931;32;20782;-76
2021/01/25 10:40:45;;;;;;;10.63;2.92;;;;;;;6.89;64.69;99759.91;4416214;32;20046;-75
2021/01/25 10:43:11;;;;;;;12.05;3.03;;;;;;;6.98;64.02;99769.25;4413004;32;20387;-75
2021/01/25 10:45:36;;;;;;;10.15;2.40;;;;;;;7.05;64.25;99759.88;4413449;32;20046;-74
2021/01/25 10:48:02;;;;;;;11.02;2.42;;;;;;;7.19;63.36;99757.53;4409569;32;20078;-76
2021/01/25 10:50:28;;;;;;;10.73;2.85;;;;;;;7.35;63.50;99765.09;4415392;32;20077;-75
2021/01/25 10:52:54;;;;;;;12.68;3.10;;;;;;;7.48;63.20;99774.34;4396538;32;20395;-75
2021/01/25 10:55:19;;;;;;;13.70;2.78;;;;;;;7.50;62.90;99780.28;4404073;32;20062;-75
2021/01/25 10:57:45;;;;;;;10.63;3.10;;;;;;;7.49;63.53;99775.94;4412679;32;20100;-76
2021/01/25 11:00:22;;;;;;;10.15;2.80;;;;;;;7.31;63.88;99781.19;4409780;32;20060;-74
2021/01/25 11:02:48;;;;;;;14.77;3.08;;;;;;;7.32;64.33;99769.56;4397174;32;20465;-78
2021/01/25 11:05:18;;;;;;;9.85;2.80;;;;;;;7.28;64.36;99785.69;4409947;32;20105;-75
2021/01/25 11:07:44;;;;;;;10.95;3.10;;;;;;;7.27;64.61;99800.09;4413440;32;20061;-75
2021/01/25 11:10:13;;;;;;;14.85;3.53;;;;;;;7.05;65.11;99777.47;4414960;32;21679;-78
2021/01/25 11:12:39;;;;;;;12.37;3.10;;;;;;;7.07;65.75;99797.41;4411126;32;20065;-78
2021/01/25 11:15:08;;;;;;;16.05;2.72;;;;;;;7.29;64.99;99803.22;4411629;32;20093;-78
2021/01/25 11:17:34;;;;;;;8.75;2.67;;;;;;;7.25;65.00;99811.75;4410775;32;20044;-75
2021/01/25 11:20:00;;;;;;;12.75;2.97;;;;;;;7.26;65.27;99801.31;4412474;32;20450;-77
2021/01/25 11:22:25;;;;;;;12.35;3.10;;;;;;;7.15;65.76;99812.78;4412679;32;20108;-78
2021/01/25 11:24:51;;;;;;;16.35;4.25;;;;;;;7.25;65.07;99814.53;4413083;32;20043;-76
2021/01/25 11:27:18;;;;;;;13.73;3.25;;;;;;;7.27;65.49;99811.28;4410110;32;20072;-79
2021/01/25 11:29:44;;;;;;;11.45;4.43;;;;;;;7.17;64.96;99837.50;4415448;32;20073;-76
2021/01/25 11:32:10;;;;;;;15.60;3.00;;;;;;;7.12;64.98;99818.47;4411373;32;20069;-76
2021/01/25 11:34:37;;;;;;;15.60;3.00;;;;;;;7.39;64.03;99822.56;4412561;32;20127;-76
2021/01/25 11:37:05;;;;;;;10.27;3.33;;;;;;;7.38;63.99;99823.00;4414878;32;20668;-77
2021/01/25 11:39:31;;;;;;;7.90;3.12;;;;;;;7.26;65.27;99813.31;4410785;32;20045;-76
2021/01/25 11:41:58;;;;;;;13.62;2.90;;;;;;;7.44;64.48;99816.44;4401766;32;20098;-77
2021/01/25 11:44:25;;;;;;;11.95;3.10;;;;;;;7.35;64.69;99819.06;4409498;32;20023;-77
2021/01/25 11:46:52;;;;;;;13.13;2.95;;;;;;;7.48;64.13;99830.31;4413377;32;20044;-74
2021/01/25 11:49:18;;;;;;;7.35;2.30;;;;;;;7.67;63.94;99815.44;4411530;32;20130;-76
2021/01/25 11:51:46;;;;;;;9.10;2.58;;;;;;;7.58;63.87;99830.03;4407758;32;20138;-76
2021/01/25 11:54:12;;;;;;;9.77;2.80;;;;;;;7.64;63.60;99841.50;4404128;32;20443;-75
2021/01/25 11:56:38;;;;;;;10.20;2.45;;;;;;;7.70;62.96;99822.94;4406932;32;20563;-78